Time;durP1;ratioP1;P1;durP2;ratioP2;P2;SDS_P1;SDS_P2;PMS_P1;PMS_P2;Temp;Humidity;BMP_temperature;BMP_pressure;BME280_temperature;BME280_humidity;BME280_pressure;Samples;Min_cycle;Max_cycle;Signal;HPM_P1;HPM_P2
2022/07/05 00:00:14;;;;;;;;;;;;;;;23.20;48.08;101397.06;5056728;28;4244;-65
2022/07/05 00:02:40;;;;;;;;;;;;;;;23.20;48.04;101385.50;5058186;28;5240;-65
2022/07/05 00:05:07;;;;;;;;;;;;;;;23.19;48.20;101389.81;5058861;28;5394;-64
2022/07/05 00:07:33;;;;;;;;;;;;;;;23.17;48.21;101395.50;5059083;28;4220;-64
2022/07/05 00:09:59;;;;;;;;;;;;;;;23.16;48.06;101385.34;5056234;28;4183;-65
2022/07/05 00:12:27;;;;;;;;;;;;;;;23.15;48.09;101396.13;5054516;28;4235;-65
2022/07/05 00:14:54;;;;;;;;;;;;;;;23.15;48.20;101395.41;5054324;28;4126;-65
2022/07/05 00:17:20;;;;;;;;;;;;;;;23.14;47.91;101394.66;5055997;28;5359;-64
2022/07/05 00:19:46;;;;;;;;;;;;;;;23.14;47.76;101394.66;5058672;28;4295;-64
2022/07/05 00:22:13;;;;;;;;;;;;;;;23.14;48.11;101396.81;5059156;28;4206;-64
2022/07/05 00:24:39;;;;;;;;;;;;;;;23.14;47.90;101391.78;5058253;28;4171;-65
2022/07/05 00:27:06;;;;;;;;;;;;;;;23.12;48.31;101391.69;5056197;28;4176;-64
2022/07/05 00:29:32;;;;;;;;;;;;;;;23.12;48.18;101391.69;5057816;28;4169;-65
2022/07/05 00:31:59;;;;;;;;;;;;;;;23.13;48.12;101395.31;5058038;28;4262;-65
2022/07/05 00:34:25;;;;;;;;;;;;;;;23.13;48.02;101395.31;5059942;28;4157;-64
2022/07/05 00:36:52;;;;;;;;;;;;;;;23.12;47.98;101402.50;5056382;28;4092;-64
2022/07/05 00:39:18;;;;;;;;;;;;;;;23.12;48.16;101396.72;5057591;28;5284;-64
2022/07/05 00:41:44;;;;;;;;;;;;;;;23.10;48.13;101413.97;5056778;28;4227;-65
2022/07/05 00:44:11;;;;;;;;;;;;;;;23.10;48.18;101417.59;5055096;28;5497;-64
2022/07/05 00:46:37;;;;;;;;;;;;;;;23.10;48.24;101408.19;5055298;28;4344;-65
2022/07/05 00:49:04;;;;;;;;;;;;;;;23.10;48.05;101416.84;5056495;28;4245;-64
2022/07/05 00:51:31;;;;;;;;;;;;;;;23.09;48.48;101421.13;5056153;28;4126;-65
2022/07/05 00:53:58;;;;;;;;;;;;;;;23.08;48.12;101419.66;5055333;28;4232;-64
2022/07/05 00:56:24;;;;;;;;;;;;;;;23.08;48.25;101431.19;5054676;28;4206;-64
2022/07/05 00:58:51;;;;;;;;;;;;;;;23.06;48.26;101425.31;5054887;28;4308;-64
2022/07/05 01:01:17;;;;;;;;;;;;;;;23.07;48.41;101430.47;5056718;28;4283;-64
2022/07/05 01:03:44;;;;;;;;;;;;;;;23.07;48.11;101429.72;5056010;28;5313;-64
2022/07/05 01:06:11;;;;;;;;;;;;;;;23.05;48.41;101432.50;5064987;28;4218;-64
2022/07/05 01:08:38;;;;;;;;;;;;;;;23.04;48.38;101431.00;5058818;28;4161;-64
2022/07/05 01:11:05;;;;;;;;;;;;;;;23.05;48.40;101426.75;5056798;28;5468;-64
2022/07/05 01:13:31;;;;;;;;;;;;;;;23.04;48.46;101433.91;5057514;28;5024;-64
2022/07/05 01:15:58;;;;;;;;;;;;;;;23.03;48.49;101429.53;5055048;28;4227;-64
2022/07/05 01:18:24;;;;;;;;;;;;;;;23.02;48.41;101431.69;5054258;28;4233;-64
2022/07/05 01:20:51;;;;;;;;;;;;;;;23.02;48.24;101428.03;5037620;28;4330;-64
2022/07/05 01:23:17;;;;;;;;;;;;;;;23.02;48.38;101436.69;5053447;28;4256;-64
2022/07/05 01:25:44;;;;;;;;;;;;;;;23.01;48.35;101427.28;5055474;28;4170;-64
2022/07/05 01:28:11;;;;;;;;;;;;;;;22.99;48.20;101430.81;5050704;28;5367;-64
2022/07/05 01:30:37;;;;;;;;;;;;;;;23.01;48.08;101427.28;5049977;28;4191;-64
2022/07/05 01:33:04;;;;;;;;;;;;;;;22.98;48.18;101429.31;5053183;28;4243;-64
2022/07/05 01:35:30;;;;;;;;;;;;;;;22.97;48.00;101427.81;5056742;28;4275;-64
2022/07/05 01:37:57;;;;;;;;;;;;;;;22.97;47.75;101427.81;5058389;28;4207;-64
2022/07/05 01:40:23;;;;;;;;;;;;;;;22.96;47.78;101425.59;5063282;28;4407;-64
2022/07/05 01:42:49;;;;;;;;;;;;;;;22.94;47.95;101423.34;5057220;28;4230;-64
2022/07/05 01:48:01;;;;;;;;;;;;;;;22.93;48.06;101427.66;5070615;28;6192;-64
2022/07/05 01:50:29;;;;;;;;;;;;;;;22.94;47.79;101429.13;5057717;28;4223;-64
2022/07/05 01:52:55;;;;;;;;;;;;;;;22.93;47.85;101426.91;5056680;28;4228;-64
2022/07/05 01:55:21;;;;;;;;;;;;;;;22.93;47.51;101419.00;5053928;28;4165;-64
2022/07/05 01:57:48;;;;;;;;;;;;;;;22.93;47.77;101421.13;5052539;28;4141;-64
2022/07/05 02:00:14;;;;;;;;;;;;;;;22.92;47.65;101423.25;5051769;28;4239;-64
2022/07/05 02:02:40;;;;;;;;;;;;;;;22.92;47.77;101426.16;5057574;28;4329;-64
2022/07/05 02:05:07;;;;;;;;;;;;;;;22.91;47.70;101424.69;5053984;28;4247;-64
2022/07/05 02:07:34;;;;;;;;;;;;;;;22.91;47.67;101418.16;5059792;28;4166;-64
2022/07/05 02:10:01;;;;;;;;;;;;;;;22.90;47.78;101428.94;5053029;28;4247;-64
2022/07/05 02:12:28;;;;;;;;;;;;;;;22.89;47.69;101433.25;5051677;28;4222;-64
2022/07/05 02:14:54;;;;;;;;;;;;;;;22.89;47.51;101433.25;5050695;28;4128;-64
2022/07/05 02:17:21;;;;;;;;;;;;;;;22.88;47.38;101437.50;5053718;28;4240;-64
2022/07/05 02:19:52;;;;;;;;;;;;;;;22.89;47.56;101426.72;5054506;28;5246;-64
2022/07/05 02:22:19;;;;;;;;;;;;;;;22.87;47.03;101418.72;5055182;28;4209;-64
2022/07/05 02:24:45;;;;;;;;;;;;;;;22.87;47.05;101418.72;5054343;28;4205;-64
2022/07/05 02:27:18;;;;;;;;;;;;;;;22.88;47.29;101425.22;5059639;28;4232;-64
2022/07/05 02:29:45;;;;;;;;;;;;;;;22.85;47.05;101433.06;5039064;28;4185;-64
2022/07/05 02:32:13;;;;;;;;;;;;;;;22.84;47.08;101431.59;5053581;28;5426;-64
2022/07/05 02:34:39;;;;;;;;;;;;;;;22.86;47.05;101430.91;5055969;28;4196;-64
2022/07/05 02:37:07;;;;;;;;;;;;;;;22.84;47.20;101437.34;5056160;28;4267;-64
2022/07/05 02:39:33;;;;;;;;;;;;;;;22.83;47.07;101435.84;5052851;28;4208;-64
2022/07/05 02:42:01;;;;;;;;;;;;;;;22.82;46.94;101440.16;5055252;28;4230;-64
2022/07/05 02:44:28;;;;;;;;;;;;;;;22.81;47.03;101438.63;5050403;28;4200;-64
2022/07/05 02:46:55;;;;;;;;;;;;;;;22.79;47.14;101436.44;5054836;28;4055;-64
2022/07/05 02:49:24;;;;;;;;;;;;;;;22.79;47.05;101433.53;5058729;28;4401;-64
2022/07/05 02:51:51;;;;;;;;;;;;;;;22.77;46.65;101439.22;5048408;28;4018;-63
2022/07/05 02:54:18;;;;;;;;;;;;;;;22.75;46.50;101444.91;5053914;28;4188;-62
2022/07/05 02:56:44;;;;;;;;;;;;;;;22.75;46.71;101444.16;5051006;28;5400;-63
2022/07/05 02:59:13;;;;;;;;;;;;;;;22.73;46.84;101444.06;5040763;28;4252;-64
2022/07/05 03:01:41;;;;;;;;;;;;;;;22.73;46.71;101449.84;5050697;28;4142;-64
2022/07/05 03:04:12;;;;;;;;;;;;;;;22.73;46.73;101444.81;5045954;28;4295;-64
2022/07/05 03:06:44;;;;;;;;;;;;;;;22.73;46.75;101455.59;5054530;28;5242;-62
2022/07/05 03:09:17;;;;;;;;;;;;;;;22.71;46.46;101449.75;5051360;28;4218;-64
2022/07/05 03:11:45;;;;;;;;;;;;;;;22.71;46.66;101444.69;5051208;28;4166;-65
2022/07/05 03:14:11;;;;;;;;;;;;;;;22.71;46.92;101456.25;5052262;28;6419;-64
2022/07/05 03:16:38;;;;;;;;;;;;;;;22.70;46.84;101456.91;5060087;28;4210;-64
2022/07/05 03:19:05;;;;;;;;;;;;;;;22.71;46.85;101458.41;5050413;28;4250;-64
2022/07/05 03:21:32;;;;;;;;;;;;;;;22.68;46.75;101459.72;5053177;28;4176;-64
2022/07/05 03:23:58;;;;;;;;;;;;;;;22.69;46.76;101464.06;5055071;28;5473;-64
2022/07/05 03:26:25;;;;;;;;;;;;;;;22.69;46.97;101464.06;5052964;28;4342;-64
2022/07/05 03:28:51;;;;;;;;;;;;;;;22.55;46.87;101462.00;5054127;28;4207;-68
2022/07/05 03:31:19;;;;;;;;;;;;;;;22.14;47.74;101465.81;5053679;28;5343;-67
2022/07/05 03:33:46;;;;;;;;;;;;;;;21.83;48.35;101469.34;5050011;28;4195;-68
2022/07/05 03:36:14;;;;;;;;;;;;;;;21.73;48.32;101460.91;5032077;28;4057;-68
2022/07/05 03:38:43;;;;;;;;;;;;;;;21.45;49.11;101465.25;5052035;28;4414;-67
2022/07/05 03:41:10;;;;;;;;;;;;;;;21.41;49.25;101465.78;5051033;28;4199;-68
2022/07/05 03:43:37;;;;;;;;;;;;;;;21.36;49.51;101469.06;5053243;28;4183;-68
2022/07/05 03:46:05;;;;;;;;;;;;;;;21.44;49.27;101472.38;5054239;28;3981;-67
2022/07/05 03:48:32;;;;;;;;;;;;;;;21.30;49.73;101475.25;5053417;28;5337;-67
2022/07/05 03:51:09;;;;;;;;;;;;;;;21.20;49.93;101475.47;5060822;28;4186;-67
2022/07/05 03:53:36;;;;;;;;;;;;;;;21.23;50.19;101468.44;5053693;28;4218;-67
2022/07/05 03:56:03;;;;;;;;;;;;;;;21.28;49.97;101470.16;5059660;28;4054;-67
2022/07/05 03:58:29;;;;;;;;;;;;;;;21.23;50.35;101464.81;5051774;28;4305;-67
2022/07/05 04:00:57;;;;;;;;;;;;;;;21.23;50.61;101479.19;5047033;28;5434;-67
2022/07/05 04:03:25;;;;;;;;;;;;;;;21.16;50.73;101481.00;5061824;28;4250;-67
2022/07/05 04:05:52;;;;;;;;;;;;;;;21.18;50.79;101481.13;5055535;28;4075;-68
2022/07/05 04:08:19;;;;;;;;;;;;;;;21.13;51.02;101485.19;5051290;28;5449;-68
2022/07/05 04:10:47;;;;;;;;;;;;;;;21.19;50.80;101485.50;5047570;28;4095;-67
2022/07/05 04:13:17;;;;;;;;;;;;;;;21.18;50.96;101483.25;5053482;28;4172;-67
2022/07/05 04:15:44;;;;;;;;;;;;;;;21.10;51.25;101490.09;5062285;28;4414;-67
2022/07/05 04:18:10;;;;;;;;;;;;;;;21.11;51.22;101497.31;5055549;28;4233;-67
2022/07/05 04:20:39;;;;;;;;;;;;;;;21.04;51.59;101509.91;5050306;28;4193;-67
2022/07/05 04:23:08;;;;;;;;;;;;;;;21.11;51.54;101502.34;5053318;28;4057;-67
2022/07/05 04:25:35;;;;;;;;;;;;;;;21.10;51.64;101501.59;5060180;28;4251;-67
2022/07/05 04:28:12;;;;;;;;;;;;;;;21.07;52.02;101502.13;5064122;28;4230;-68
2022/07/05 04:30:40;;;;;;;;;;;;;;;21.10;52.00;101507.38;5062637;28;5434;-67
2022/07/05 04:33:09;;;;;;;;;;;;;;;21.10;52.07;101501.59;5050921;28;5545;-67
2022/07/05 04:35:36;;;;;;;;;;;;;;;21.10;52.25;101507.38;5064698;28;4212;-67
2022/07/05 04:38:04;;;;;;;;;;;;;;;21.10;52.29;101506.63;5061569;28;4212;-67
2022/07/05 04:40:31;;;;;;;;;;;;;;;21.10;52.44;101513.13;5056574;28;5525;-67
2022/07/05 04:42:58;;;;;;;;;;;;;;;21.07;52.60;101516.53;5059934;28;4140;-67
2022/07/05 04:45:24;;;;;;;;;;;;;;;21.07;52.76;101507.88;5065166;28;4306;-67
2022/07/05 04:47:51;;;;;;;;;;;;;;;21.05;52.91;101522.16;5056903;28;4221;-68
2022/07/05 04:50:21;;;;;;;;;;;;;;;21.06;53.05;101529.44;5060047;28;4155;-65
2022/07/05 04:52:47;;;;;;;;;;;;;;;21.09;53.03;101533.91;5058660;28;4186;-67
2022/07/05 04:55:14;;;;;;;;;;;;;;;21.16;53.26;101526.34;5059018;28;4219;-67
2022/07/05 04:57:40;;;;;;;;;;;;;;;21.14;53.22;101538.50;5051478;28;5122;-67
2022/07/05 05:00:07;;;;;;;;;;;;;;;21.17;53.27;101539.38;5054692;28;4212;-67
2022/07/05 05:02:34;;;;;;;;;;;;;;;21.20;53.41;101543.84;5045786;28;4058;-62
2022/07/05 05:05:00;;;;;;;;;;;;;;;21.24;53.47;101539.06;5052443;28;4237;-62
2022/07/05 05:07:27;;;;;;;;;;;;;;;21.22;53.51;101541.84;5056473;28;4275;-62
2022/07/05 05:09:56;;;;;;;;;;;;;;;20.57;55.52;101541.13;5060860;28;4193;-64
2022/07/05 05:12:22;;;;;;;;;;;;;;;20.70;56.16;101551.94;5045937;28;4189;-65
2022/07/05 05:14:49;;;;;;;;;;;;;;;20.92;55.21;101550.31;5056864;28;4299;-65
2022/07/05 05:17:16;;;;;;;;;;;;;;;21.10;55.30;101555.59;5057213;28;4145;-65
2022/07/05 05:19:42;;;;;;;;;;;;;;;21.06;55.52;101564.00;5057586;28;4131;-67
2022/07/05 05:22:10;;;;;;;;;;;;;;;20.99;55.38;101550.66;5054224;28;4144;-66
2022/07/05 05:24:36;;;;;;;;;;;;;;;21.31;54.45;101561.03;5054042;28;4207;-63
2022/07/05 05:27:02;;;;;;;;;;;;;;;20.90;54.81;101563.84;5057620;28;4174;-62
2022/07/05 05:29:29;;;;;;;;;;;;;;;20.82;54.95;101554.75;5055784;28;4248;-62
2022/07/05 05:31:55;;;;;;;;;;;;;;;20.82;54.53;101551.88;5056467;28;5328;-68
2022/07/05 05:34:22;;;;;;;;;;;;;;;20.79;54.36;101551.00;5055314;28;4186;-67
2022/07/05 05:36:48;;;;;;;;;;;;;;;20.70;54.16;101557.69;5053669;28;4198;-68
2022/07/05 05:39:14;;;;;;;;;;;;;;;20.90;53.69;101553.06;5058155;28;5403;-67
2022/07/05 05:41:41;;;;;;;;;;;;;;;20.87;53.43;101553.63;5055167;28;4211;-67
2022/07/05 05:44:09;;;;;;;;;;;;;;;20.82;53.72;101557.63;5053360;28;4217;-67
2022/07/05 05:46:35;;;;;;;;;;;;;;;20.82;53.41;101563.38;5053908;28;5462;-67
2022/07/05 05:49:02;;;;;;;;;;;;;;;20.82;53.48;101564.16;5055668;28;5332;-67
2022/07/05 05:51:28;;;;;;;;;;;;;;;20.65;53.59;101568.25;5055978;28;4278;-62
2022/07/05 05:53:55;;;;;;;;;;;;;;;20.91;53.26;101565.34;5055168;28;5220;-62
2022/07/05 05:56:21;;;;;;;;;;;;;;;20.78;53.66;101574.69;5054720;28;5124;-63
2022/07/05 05:58:48;;;;;;;;;;;;;;;20.89;52.91;101568.09;5053423;28;4312;-62
2022/07/05 06:01:14;;;;;;;;;;;;;;;20.61;53.46;101567.25;5054736;28;4060;-62
2022/07/05 06:03:40;;;;;;;;;;;;;;;20.87;53.01;101577.38;5051191;28;4282;-62
2022/07/05 06:06:07;;;;;;;;;;;;;;;21.03;52.41;101571.03;5054372;28;5390;-67
2022/07/05 06:08:33;;;;;;;;;;;;;;;20.82;51.81;101575.66;5054957;28;4254;-67
2022/07/05 06:11:03;;;;;;;;;;;;;;;20.88;52.13;101581.75;5054659;28;4258;-67
2022/07/05 06:13:30;;;;;;;;;;;;;;;21.11;51.08;101577.22;5054213;28;4126;-67
2022/07/05 06:15:56;;;;;;;;;;;;;;;21.10;50.94;101581.50;5060152;28;4261;-62
2022/07/05 06:18:23;;;;;;;;;;;;;;;21.22;50.79;101576.41;5058597;28;4146;-61
2022/07/05 06:20:49;;;;;;;;;;;;;;;21.56;50.46;101585.44;5054241;28;4197;-62
2022/07/05 06:23:15;;;;;;;;;;;;;;;21.75;50.59;101590.00;5048755;28;4039;-61
2022/07/05 06:25:42;;;;;;;;;;;;;;;21.82;49.59;101588.19;5058581;28;4190;-64
2022/07/05 06:28:08;;;;;;;;;;;;;;;21.83;49.32;101592.56;5061353;28;4153;-65
2022/07/05 06:30:35;;;;;;;;;;;;;;;21.68;48.75;101594.72;5064284;28;4363;-68
2022/07/05 06:33:02;;;;;;;;;;;;;;;21.65;48.56;101593.13;5054699;28;4237;-66
2022/07/05 06:35:28;;;;;;;;;;;;;;;21.81;48.50;101593.22;5047055;28;4466;-69
2022/07/05 06:38:04;;;;;;;;;;;;;;;21.60;48.55;101597.19;5055849;28;4196;-72
2022/07/05 06:40:30;;;;;;;;;;;;;;;21.51;48.63;101595.25;5051940;28;4184;-64
2022/07/05 06:42:57;;;;;;;;;;;;;;;21.72;48.18;101603.56;5053956;28;5396;-65
2022/07/05 06:45:30;;;;;;;;;;;;;;;21.84;48.03;101608.50;5051647;28;4356;-65
2022/07/05 06:47:57;;;;;;;;;;;;;;;21.84;48.75;101596.94;5053168;28;4091;-68
2022/07/05 06:50:24;;;;;;;;;;;;;;;21.98;49.11;101600.56;5056474;28;4211;-67
2022/07/05 06:52:51;;;;;;;;;;;;;;;22.04;47.67;101606.66;5048009;28;4240;-71
2022/07/05 06:55:17;;;;;;;;;;;;;;;22.06;47.92;101606.75;5044943;28;4312;-69
2022/07/05 06:57:45;;;;;;;;;;;;;;;22.13;48.03;101611.44;5046418;28;4180;-68
2022/07/05 07:00:34;;;;;;;;;;;;;;;22.15;47.57;101608.66;5047486;28;4038;-71
2022/07/05 07:03:20;;;;;;;;;;;;;;;22.08;47.30;101601.09;5053485;28;5206;-69
2022/07/05 07:06:07;;;;;;;;;;;;;;;22.08;47.67;101608.97;5055695;28;4198;-69
2022/07/05 07:11:19;;;;;;;;;;;;;;;22.04;47.44;101603.78;5051839;28;4124;-66
2022/07/05 07:13:46;;;;;;;;;;;;;;;22.19;47.28;101613.88;5045005;28;4126;-67
2022/07/05 07:16:12;;;;;;;;;;;;;;;22.14;47.02;101615.81;5053959;28;4234;-68
2022/07/05 07:18:39;;;;;;;;;;;;;;;22.17;47.45;101617.44;5052199;28;5489;-68
2022/07/05 07:21:25;;;;;;;;;;;;;;;22.30;47.16;101615.19;5052471;28;5255;-68
2022/07/05 07:23:51;;;;;;;;;;;;;;;22.24;46.88;101614.84;5048773;28;4311;-67
2022/07/05 07:26:18;;;;;;;;;;;;;;;22.25;46.87;101619.25;5050865;28;6429;-65
2022/07/05 07:28:44;;;;;;;;;;;;;;;22.27;46.61;101616.47;5051389;28;4123;-65
2022/07/05 07:31:11;;;;;;;;;;;;;;;22.22;46.66;101600.34;5042725;28;4200;-65
2022/07/05 07:33:37;;;;;;;;;;;;;;;22.28;46.26;101615.06;5036491;28;4199;-65
2022/07/05 07:36:11;;;;;;;;;;;;;;;22.32;46.52;101609.50;5047215;28;4185;-66
2022/07/05 07:38:41;;;;;;;;;;;;;;;22.31;46.84;101608.00;5043798;28;4184;-66
2022/07/05 07:41:07;;;;;;;;;;;;;;;22.18;46.74;101612.41;5047002;28;4050;-70
2022/07/05 07:43:33;;;;;;;;;;;;;;;22.10;47.43;101606.94;5035441;28;4175;-73
2022/07/05 07:46:00;;;;;;;;;;;;;;;21.88;47.46;101600.06;5046181;28;4149;-70
2022/07/05 07:48:28;;;;;;;;;;;;;;;21.94;47.00;101606.88;5043988;28;4169;-68
2022/07/05 07:50:54;;;;;;;;;;;;;;;22.03;47.01;101608.03;5047279;28;4112;-71
2022/07/05 07:53:21;;;;;;;;;;;;;;;22.18;46.84;101607.38;5051207;28;4144;-69
2022/07/05 07:55:48;;;;;;;;;;;;;;;22.27;46.47;101604.94;5051531;28;4241;-66
2022/07/05 07:58:14;;;;;;;;;;;;;;;22.18;46.78;101618.91;5052066;28;5172;-66
2022/07/05 08:00:41;;;;;;;;;;;;;;;22.41;47.25;101605.63;5054196;28;5235;-65
2022/07/05 08:03:07;;;;;;;;;;;;;;;22.74;46.69;101607.97;5054160;28;4239;-64
2022/07/05 08:05:33;;;;;;;;;;;;;;;22.74;46.65;101613.00;5050891;28;4202;-65
2022/07/05 08:08:01;;;;;;;;;;;;;;;22.72;46.27;101610.00;5052729;28;5539;-65
2022/07/05 08:10:27;;;;;;;;;;;;;;;22.67;46.75;101603.28;5056019;28;4191;-63
2022/07/05 08:12:53;;;;;;;;;;;;;;;22.54;46.74;101607.75;5053136;28;4166;-63
2022/07/05 08:15:20;;;;;;;;;;;;;;;22.50;46.89;101607.53;5052884;28;4261;-63
2022/07/05 08:21:30;;;;;;;;;;;;;;;22.52;47.50;101601.13;5051242;28;4162;-64
2022/07/05 08:23:17;;;;;;;;;;;;;;;22.81;46.83;101600.34;5058989;28;4086;-64
2022/07/05 08:25:44;;;;;;;;;;;;;;;22.88;46.83;101599.22;5054200;28;4239;-65
2022/07/05 08:28:10;;;;;;;;;;;;;;;23.01;46.73;101600.59;5059855;28;4301;-63
2022/07/05 08:30:37;;;;;;;;;;;;;;;23.03;46.61;101594.19;5060421;28;4190;-63
2022/07/05 08:33:03;;;;;;;;;;;;;;;23.08;46.18;101590.06;5057049;28;4356;-65
2022/07/05 08:35:29;;;;;;;;;;;;;;;23.07;45.96;101591.50;5060010;28;4332;-64
2022/07/05 08:37:56;;;;;;;;;;;;;;;23.05;45.92;101588.50;5059205;28;5295;-63
2022/07/05 08:40:22;;;;;;;;;;;;;;;23.13;45.81;101594.66;5059120;28;4318;-63
2022/07/05 08:42:49;;;;;;;;;;;;;;;23.11;45.74;101592.44;5056578;28;4123;-64
2022/07/05 08:45:15;;;;;;;;;;;;;;;23.19;45.75;101597.81;5054109;28;4282;-67
2022/07/05 08:47:41;;;;;;;;;;;;;;;23.25;45.39;101588.69;5054628;28;4064;-67
2022/07/05 08:50:08;;;;;;;;;;;;;;;23.27;45.38;101591.66;5050938;28;4194;-65
2022/07/05 08:52:34;;;;;;;;;;;;;;;23.33;45.61;101589.81;5049717;28;4206;-66
2022/07/05 08:55:01;;;;;;;;;;;;;;;23.35;45.48;101587.00;5052340;28;4075;-65
2022/07/05 08:57:27;;;;;;;;;;;;;;;23.36;45.75;101594.28;5052811;28;4312;-67
2022/07/05 08:59:53;;;;;;;;;;;;;;;23.34;45.57;101597.09;5051981;28;4240;-67
2022/07/05 09:02:20;;;;;;;;;;;;;;;23.34;45.22;101597.09;5052519;28;4269;-69
2022/07/05 09:04:46;;;;;;;;;;;;;;;23.29;45.22;101589.63;5056390;28;4346;-66
2022/07/05 09:07:16;;;;;;;;;;;;;;;23.26;45.73;101590.94;5051452;28;4084;-69
2022/07/05 09:09:43;;;;;;;;;;;;;;;23.45;45.30;101589.59;5050037;28;4115;-64
2022/07/05 09:12:11;;;;;;;;;;;;;;;23.38;45.03;101588.59;5049534;28;4467;-64
2022/07/05 09:14:48;;;;;;;;;;;;;;;23.15;45.37;101588.97;5049466;28;4492;-70
2022/07/05 09:17:14;;;;;;;;;;;;;;;23.03;46.09;101588.41;5046517;28;4497;-69
2022/07/05 09:19:41;;;;;;;;;;;;;;;22.97;46.05;101575.13;5043980;28;6800;-69
2022/07/05 09:22:08;;;;;;;;;;;;;;;22.92;46.04;101576.34;5054768;28;4198;-69
2022/07/05 09:24:44;;;;;;;;;;;;;;;22.94;45.94;101562.00;5051766;28;4161;-66
2022/07/05 09:27:11;;;;;;;;;;;;;;;23.09;46.16;101585.78;5054892;28;5458;-65
2022/07/05 09:29:38;;;;;;;;;;;;;;;23.26;45.95;101573.59;5052646;28;4188;-66
2022/07/05 09:32:09;;;;;;;;;;;;;;;23.28;46.24;101575.84;5052041;28;4217;-67
2022/07/05 09:34:36;;;;;;;;;;;;;;;23.27;46.27;101574.31;5053595;28;4203;-65
2022/07/05 09:37:03;;;;;;;;;;;;;;;23.32;45.71;101576.75;5047860;28;4446;-65
2022/07/05 09:39:29;;;;;;;;;;;;;;;23.38;45.38;101573.41;5050046;28;5503;-65
2022/07/05 09:42:14;;;;;;;;;;;;;;;23.38;45.20;101568.34;5050982;28;4217;-60
2022/07/05 09:44:44;;;;;;;;;;;;;;;23.36;45.87;101573.28;5055429;28;5345;-60
2022/07/05 09:47:14;;;;;;;;;;;;;;;23.37;45.46;101571.91;5053121;28;5390;-59
2022/07/05 09:49:42;;;;;;;;;;;;;;;23.18;45.87;101562.41;5055417;28;4247;-59
2022/07/05 09:52:32;;;;;;;;;;;;;;;23.25;45.76;101577.88;5049337;28;5396;-59
2022/07/05 09:55:04;;;;;;;;;;;;;;;23.47;45.42;101575.25;5054432;28;5245;-57
2022/07/05 09:57:31;;;;;;;;;;;;;;;23.40;45.26;101570.59;5055367;28;5111;-59
2022/07/05 09:59:58;;;;;;;;;;;;;;;23.45;45.34;101568.63;5051789;28;4093;-58
2022/07/05 10:02:33;;;;;;;;;;;;;;;23.53;45.67;101571.91;5051338;28;4217;-58
2022/07/05 10:05:18;;;;;;;;;;;;;;;23.54;44.97;101573.38;5057308;28;4220;-58
2022/07/05 10:07:45;;;;;;;;;;;;;;;23.59;45.32;101575.03;5053810;28;4226;-58
2022/07/05 10:10:12;;;;;;;;;;;;;;;23.39;45.30;101566.22;5042386;28;5247;-60
2022/07/05 10:12:39;;;;;;;;;;;;;;;23.46;45.47;101570.13;5048213;28;4209;-59
2022/07/05 10:15:05;;;;;;;;;;;;;;;23.34;45.39;101576.09;5048193;28;4293;-58
2022/07/05 10:17:33;;;;;;;;;;;;;;;23.23;45.05;101568.34;5066682;28;4227;-60
2022/07/05 10:20:02;;;;;;;;;;;;;;;23.18;45.61;101573.19;5047528;28;4238;-59
2022/07/05 10:22:29;;;;;;;;;;;;;;;23.25;45.76;101577.88;5045469;28;4261;-62
2022/07/05 10:24:55;;;;;;;;;;;;;;;23.38;45.87;101574.13;5048262;28;5245;-60
2022/07/05 10:27:21;;;;;;;;;;;;;;;23.53;45.63;101578.41;5052558;28;4244;-62
2022/07/05 10:29:48;;;;;;;;;;;;;;;23.39;46.38;101569.84;5054445;28;4347;-62
2022/07/05 10:32:14;;;;;;;;;;;;;;;23.45;46.48;101585.97;5048561;28;4264;-62
2022/07/05 10:34:42;;;;;;;;;;;;;;;23.49;46.19;101584.00;5052339;28;4195;-63
2022/07/05 10:37:25;;;;;;;;;;;;;;;23.50;44.56;101579.75;5052849;28;4241;-58
2022/07/05 10:39:52;;;;;;;;;;;;;;;23.50;44.44;101582.63;5049712;28;4255;-61
2022/07/05 10:42:18;;;;;;;;;;;;;;;23.51;44.19;101577.59;5048079;28;5308;-59
2022/07/05 10:44:45;;;;;;;;;;;;;;;23.46;44.53;101579.56;5051179;28;4180;-66
2022/07/05 10:47:11;;;;;;;;;;;;;;;23.35;45.14;101574.72;5048541;28;5283;-61
2022/07/05 10:49:38;;;;;;;;;;;;;;;23.29;45.01;101575.16;5049474;28;4266;-60
2022/07/05 10:52:04;;;;;;;;;;;;;;;23.27;45.32;101566.41;5050766;28;4159;-66
2022/07/05 10:54:33;;;;;;;;;;;;;;;23.26;45.65;101564.19;5053389;28;4297;-61
2022/07/05 10:57:18;;;;;;;;;;;;;;;23.25;45.98;101557.66;5051098;28;4486;-60
2022/07/05 11:00:03;;;;;;;;;;;;;;;23.30;46.01;101556.44;5049114;28;4231;-62
2022/07/05 11:02:29;;;;;;;;;;;;;;;23.46;45.58;101561.47;5052321;28;5345;-59
2022/07/05 11:04:56;;;;;;;;;;;;;;;23.51;45.70;101557.34;5051300;28;4068;-65
2022/07/05 11:08:02;;;;;;;;;;;;;;;23.48;45.83;101565.19;5044415;28;4306;-64
2022/07/05 11:10:31;;;;;;;;;;;;;;;23.51;46.07;101563.13;4959225;28;4409;-63
2022/07/05 11:12:57;;;;;;;;;;;;;;;23.50;46.00;101561.63;4950635;28;5335;-61
2022/07/05 11:15:24;;;;;;;;;;;;;;;23.64;45.56;101553.59;5001270;28;4428;-60
2022/07/05 11:17:50;;;;;;;;;;;;;;;23.70;45.31;101556.00;5050675;28;4153;-59
2022/07/05 11:20:26;;;;;;;;;;;;;;;23.70;44.65;101556.75;5048416;28;4267;-58
2022/07/05 11:23:05;;;;;;;;;;;;;;;23.71;45.10;101557.47;5049375;28;4246;-58
2022/07/05 11:25:32;;;;;;;;;;;;;;;23.71;45.98;101555.34;5050050;28;5282;-59
2022/07/05 11:27:58;;;;;;;;;;;;;;;23.70;46.37;101556.75;5050166;28;4269;-60
2022/07/05 11:30:25;;;;;;;;;;;;;;;23.74;45.70;101554.06;5053813;28;4239;-61
2022/07/05 11:32:51;;;;;;;;;;;;;;;23.77;45.76;101546.22;5050206;28;4261;-60
2022/07/05 11:35:18;;;;;;;;;;;;;;;23.75;46.28;101546.88;5048939;28;5302;-60
2022/07/05 11:38:04;;;;;;;;;;;;;;;23.77;45.81;101546.94;5054586;28;4332;-58
2022/07/05 11:40:50;;;;;;;;;;;;;;;23.70;46.16;101545.19;5047969;28;4194;-60
2022/07/05 11:43:25;;;;;;;;;;;;;;;23.73;46.06;101532.31;5046659;28;5458;-59
2022/07/05 11:45:55;;;;;;;;;;;;;;;23.77;46.05;101538.28;5055085;28;4226;-59
2022/07/05 11:48:21;;;;;;;;;;;;;;;23.77;46.03;101535.38;5053201;28;5331;-60
2022/07/05 11:50:49;;;;;;;;;;;;;;;23.82;45.79;101534.19;5055726;28;4088;-60
2022/07/05 11:53:24;;;;;;;;;;;;;;;23.80;45.84;101542.75;5042388;28;5293;-59
2022/07/05 11:56:11;;;;;;;;;;;;;;;23.85;46.16;101535.00;5039318;28;4281;-61
2022/07/05 11:58:37;;;;;;;;;;;;;;;23.68;46.06;101530.63;5036124;28;4369;-60
2022/07/05 12:01:05;;;;;;;;;;;;;;;23.63;46.09;101531.84;5041492;28;4265;-66
2022/07/05 12:03:32;;;;;;;;;;;;;;;23.60;46.44;101527.41;5036332;28;4206;-61
2022/07/05 12:05:58;;;;;;;;;;;;;;;23.58;46.52;101521.53;5044241;28;4230;-65
2022/07/05 12:08:25;;;;;;;;;;;;;;;23.55;46.95;101520.69;5044543;28;4244;-60
2022/07/05 12:13:42;;;;;;;;;;;;;;;23.54;46.73;101521.34;5042932;28;4171;-60
2022/07/05 12:16:09;;;;;;;;;;;;;;;23.54;46.79;101515.56;5053355;28;4123;-60
2022/07/05 12:18:48;;;;;;;;;;;;;;;23.53;46.87;101506.16;5049776;28;4155;-60
2022/07/05 12:21:15;;;;;;;;;;;;;;;23.53;46.97;101506.16;5051488;28;4223;-61
2022/07/05 12:23:44;;;;;;;;;;;;;;;23.53;47.08;101502.53;5050269;28;4038;-64
2022/07/05 12:26:13;;;;;;;;;;;;;;;23.54;47.62;101504.00;5049335;28;4552;-64
2022/07/05 12:28:40;;;;;;;;;;;;;;;23.54;47.67;101501.84;5053704;28;5795;-64
2022/07/05 12:31:20;;;;;;;;;;;;;;;23.53;47.67;101508.31;5052430;28;4184;-64
2022/07/05 12:33:47;;;;;;;;;;;;;;;23.54;46.88;101509.78;5043323;28;4068;-63
2022/07/05 12:36:14;;;;;;;;;;;;;;;23.68;45.57;101493.03;5045296;28;4202;-65
2022/07/05 12:38:41;;;;;;;;;;;;;;;23.60;45.82;101502.13;5041140;28;4580;-64
2022/07/05 12:41:08;;;;;;;;;;;;;;;23.52;43.23;101495.22;5038780;28;4169;-65
2022/07/05 12:44:07;;;;;;;;;;;;;;;23.68;44.05;101493.03;5033256;28;5176;-65
2022/07/05 12:46:36;;;;;;;;;;;;;;;23.70;42.30;101493.13;5006351;28;4251;-66
2022/07/05 12:49:10;;;;;;;;;;;;;;;23.82;42.24;101487.91;5045131;28;5450;-61
2022/07/05 12:51:37;;;;;;;;;;;;;;;23.82;42.63;101487.91;5035115;28;5460;-64
2022/07/05 12:59:59;;;;;;;;;;;;;;;23.77;41.72;101491.28;5047565;28;7434;-63
2022/07/05 13:02:35;;;;;;;;;;;;;;;23.95;41.80;101488.41;5042597;28;4243;-62
2022/07/05 13:05:02;;;;;;;;;;;;;;;24.36;41.34;101487.91;5047600;28;5506;-62
2022/07/05 13:07:28;;;;;;;;;;;;;;;24.42;41.03;101487.41;5047773;28;4074;-62
2022/07/05 13:10:14;;;;;;;;;;;;;;;24.31;41.10;101485.53;5044783;28;4270;-63